createdAt,value
2022-10-29T00:00:15.888Z,6.20
2022-10-29T00:05:40.794Z,4.82
2022-10-29T00:11:09.417Z,4.82
2022-10-29T00:16:38.068Z,5.88
2022-10-29T00:22:02.254Z,5.22
2022-10-29T00:27:27.718Z,5.97
2022-10-29T00:32:52.763Z,5.60
2022-10-29T00:38:17.733Z,5.30
2022-10-29T00:43:49.193Z,5.22
2022-10-29T00:49:14.089Z,4.80
2022-10-29T00:54:43.820Z,5.18
2022-10-29T01:00:11.334Z,5.10
2022-10-29T01:05:36.725Z,4.20
2022-10-29T01:11:13.005Z,4.35
2022-10-29T01:16:46.419Z,3.35
2022-10-29T01:22:19.705Z,3.42
2022-10-29T01:27:58.166Z,3.65
2022-10-29T01:33:29.958Z,2.45
2022-10-29T01:39:04.093Z,3.13
2022-10-29T01:44:37.905Z,2.78
2022-10-29T01:50:09.040Z,3.30
2022-10-29T01:55:35.618Z,2.63
2022-10-29T02:01:12.215Z,2.45
2022-10-29T02:06:48.712Z,3.00
2022-10-29T02:12:22.135Z,2.58
2022-10-29T02:17:46.212Z,2.25
2022-10-29T02:23:13.048Z,2.30
2022-10-29T02:28:37.649Z,2.55
2022-10-29T02:34:02.620Z,2.75
2022-10-29T02:39:30.834Z,2.75
2022-10-29T02:44:56.648Z,2.80
2022-10-29T02:50:20.986Z,2.67
2022-10-29T02:55:46.521Z,2.85
2022-10-29T03:01:12.046Z,3.25
2022-10-29T03:06:36.227Z,3.55
2022-10-29T03:12:01.832Z,3.50
2022-10-29T03:17:27.977Z,3.17
2022-10-29T03:22:52.298Z,3.38
2022-10-29T03:28:17.816Z,3.05
2022-10-29T03:33:42.013Z,3.38
2022-10-29T03:39:06.517Z,3.33
2022-10-29T03:44:33.067Z,3.80
2022-10-29T03:49:57.027Z,3.40
2022-10-29T03:55:20.889Z,3.20
2022-10-29T04:00:54.867Z,3.72
2022-10-29T04:06:20.804Z,3.85
2022-10-29T04:11:45.416Z,3.38
2022-10-29T04:17:12.963Z,3.63
2022-10-29T04:28:42.954Z,4.13
2022-10-29T04:34:07.768Z,6.75
2022-10-29T04:39:34.908Z,6.88
2022-10-29T04:44:59.025Z,6.88
2022-10-29T04:50:24.599Z,6.82
2022-10-29T04:55:50.136Z,7.30
2022-10-29T05:01:14.438Z,8.00
2022-10-29T05:06:40.696Z,7.13
2022-10-29T05:12:09.131Z,7.90
2022-10-29T05:17:37.287Z,7.65
2022-10-29T05:23:04.927Z,8.00
2022-10-29T05:28:29.520Z,8.75
2022-10-29T05:33:56.017Z,8.52
2022-10-29T05:39:21.143Z,7.10
2022-10-29T05:44:45.219Z,7.05
2022-10-29T05:50:14.623Z,6.20
2022-10-29T05:55:41.098Z,5.85
2022-10-29T06:01:08.372Z,6.28
2022-10-29T06:06:34.079Z,6.55
2022-10-29T06:12:00.271Z,5.78
2022-10-29T06:17:26.004Z,6.10
2022-10-29T06:22:58.305Z,5.05
2022-10-29T06:28:24.651Z,5.82
2022-10-29T06:33:49.285Z,5.93
2022-10-29T06:39:15.130Z,5.72
2022-10-29T06:44:41.749Z,5.45
2022-10-29T06:50:07.103Z,5.75
2022-10-29T06:55:31.947Z,5.68
2022-10-29T07:06:28.836Z,6.45
2022-10-29T07:11:52.985Z,5.25
2022-10-29T07:17:18.595Z,6.25
2022-10-29T07:22:47.869Z,6.65
2022-10-29T07:28:16.327Z,6.88
2022-10-29T07:33:41.821Z,6.93
2022-10-29T07:39:07.462Z,7.10
2022-10-29T07:44:32.954Z,6.35
2022-10-29T07:49:58.020Z,6.47
2022-10-29T07:55:22.780Z,7.65
2022-10-29T08:00:47.533Z,7.13
2022-10-29T08:06:12.485Z,7.05
2022-10-29T08:11:37.217Z,8.15
2022-10-29T08:17:01.949Z,7.85
2022-10-29T08:22:27.533Z,8.75
2022-10-29T08:28:00.507Z,8.43
2022-10-29T08:33:25.693Z,8.50
2022-10-29T08:38:51.640Z,8.23
2022-10-29T08:44:40.086Z,8.00
2022-10-29T08:50:12.143Z,7.32
2022-10-29T08:55:39.035Z,8.05
2022-10-29T09:01:03.223Z,8.15
2022-10-29T09:06:37.868Z,8.07
2022-10-29T09:12:21.985Z,7.55
2022-10-29T09:17:59.188Z,8.85
2022-10-29T09:23:31.506Z,9.23
2022-10-29T09:29:11.619Z,9.23
2022-10-29T09:34:42.832Z,7.82
2022-10-29T09:40:17.795Z,8.02
2022-10-29T09:45:50.918Z,7.57
2022-10-29T09:51:28.311Z,8.23
2022-10-29T09:56:56.184Z,7.70
2022-10-29T10:02:30.741Z,7.15
2022-10-29T10:08:10.733Z,7.65
2022-10-29T10:13:38.949Z,8.18
2022-10-29T10:19:22.675Z,7.68
2022-10-29T10:24:47.912Z,8.13
2022-10-29T10:30:18.029Z,7.60
2022-10-29T10:35:44.660Z,7.18
2022-10-29T10:41:11.764Z,7.47
2022-10-29T10:46:40.859Z,7.93
2022-10-29T10:52:16.675Z,7.88
2022-10-29T10:57:48.753Z,7.90
2022-10-29T11:03:19.525Z,8.23
2022-10-29T11:08:51.666Z,8.13
2022-10-29T11:14:21.600Z,7.80
2022-10-29T11:19:50.229Z,7.72
2022-10-29T11:25:19.526Z,7.50
2022-10-29T11:36:18.463Z,7.03
2022-10-29T11:41:49.447Z,7.53
2022-10-29T11:47:28.955Z,7.75
2022-10-29T11:53:01.098Z,8.07
2022-10-29T11:58:38.110Z,7.32
2022-10-29T12:04:24.389Z,7.80
2022-10-29T12:10:17.982Z,7.70
2022-10-29T12:15:53.079Z,7.00
2022-10-29T12:21:28.328Z,7.53
2022-10-29T12:26:59.951Z,7.80
2022-10-29T12:32:33.078Z,9.38
2022-10-29T12:38:18.818Z,7.72
2022-10-29T12:43:44.111Z,8.05
2022-10-29T12:49:19.316Z,8.25
2022-10-29T12:54:46.299Z,7.32
2022-10-29T13:00:45.903Z,8.13
2022-10-29T13:06:55.181Z,7.50
2022-10-29T13:12:52.227Z,7.18
2022-10-29T13:18:23.899Z,7.43
2022-10-29T13:24:04.069Z,6.57
2022-10-29T13:29:50.618Z,6.50
2022-10-29T13:35:41.864Z,6.63
2022-10-29T13:41:14.035Z,7.28
2022-10-29T13:46:48.073Z,7.07
2022-10-29T13:52:18.916Z,7.15
2022-10-29T13:57:53.029Z,6.93
2022-10-29T14:03:21.889Z,7.90
2022-10-29T14:08:50.310Z,7.53
2022-10-29T14:14:28.537Z,7.70
2022-10-29T14:19:54.295Z,8.73
2022-10-29T14:25:32.091Z,7.90
2022-10-29T14:31:05.627Z,7.75
2022-10-29T14:36:35.395Z,7.03
2022-10-29T14:47:32.240Z,8.07
2022-10-29T14:53:00.991Z,9.27
2022-10-29T14:58:29.831Z,8.27
2022-10-29T15:03:59.585Z,8.45
2022-10-29T15:09:28.477Z,7.65
2022-10-29T15:14:55.035Z,8.15
2022-10-29T15:20:22.692Z,8.38
2022-10-29T15:25:51.910Z,8.60
2022-10-29T15:31:22.716Z,7.80
2022-10-29T15:36:48.709Z,8.10
2022-10-29T15:42:22.002Z,8.32
2022-10-29T15:47:52.087Z,7.38
2022-10-29T15:53:18.127Z,7.15
2022-10-29T15:58:42.948Z,8.25
2022-10-29T16:04:09.515Z,8.38
2022-10-29T16:09:33.451Z,8.63
2022-10-29T16:14:58.942Z,8.07
2022-10-29T16:20:24.887Z,8.13
2022-10-29T16:25:48.915Z,7.20
2022-10-29T16:31:20.787Z,7.75
2022-10-29T16:36:47.716Z,7.45
2022-10-29T16:42:29.028Z,7.65
2022-10-29T16:47:53.294Z,7.43
2022-10-29T16:53:19.142Z,7.03
2022-10-29T16:58:43.647Z,6.88
2022-10-29T17:04:09.460Z,6.65
2022-10-29T17:09:37.163Z,7.63
2022-10-29T17:15:01.385Z,7.40
2022-10-29T17:20:26.175Z,7.30
2022-10-29T17:25:57.634Z,6.60
2022-10-29T17:31:21.881Z,7.60
2022-10-29T17:36:46.595Z,7.22
2022-10-29T17:42:13.447Z,6.45
2022-10-29T17:53:03.525Z,6.53
2022-10-29T17:58:31.048Z,7.65
2022-10-29T18:03:54.999Z,6.95
2022-10-29T18:09:21.222Z,7.45
2022-10-29T18:14:46.961Z,6.97
2022-10-29T18:20:12.503Z,7.55
2022-10-29T18:25:37.149Z,7.47
2022-10-29T18:31:03.473Z,8.13
2022-10-29T18:36:27.625Z,8.05
2022-10-29T18:41:54.053Z,8.07
2022-10-29T18:47:20.288Z,8.40
2022-10-29T18:52:43.889Z,8.13
2022-10-29T18:58:07.998Z,8.10
2022-10-29T19:03:33.457Z,7.75
2022-10-29T19:08:57.683Z,8.35
2022-10-29T19:14:22.026Z,7.32
2022-10-29T19:19:47.183Z,7.10
2022-10-29T19:25:12.093Z,7.43
2022-10-29T19:30:36.182Z,7.90
2022-10-29T19:36:01.747Z,7.65
2022-10-29T19:41:26.674Z,7.78
2022-10-29T19:46:51.151Z,7.32
2022-10-29T19:52:17.294Z,7.22
2022-10-29T19:57:41.773Z,7.53
2022-10-29T20:03:06.051Z,6.72
2022-10-29T20:08:34.556Z,7.75
2022-10-29T20:13:58.804Z,7.43
2022-10-29T20:19:23.043Z,7.88
2022-10-29T20:24:48.593Z,7.72
2022-10-29T20:30:13.657Z,7.82
2022-10-29T20:35:37.565Z,7.32
2022-10-29T20:41:03.700Z,8.43
2022-10-29T20:46:28.160Z,7.03
2022-10-29T20:51:52.187Z,6.40
2022-10-29T20:57:17.803Z,7.72
2022-10-29T21:02:41.910Z,7.40
2022-10-29T21:08:06.529Z,8.57
2022-10-29T21:13:33.103Z,8.82
2022-10-29T21:18:59.212Z,8.65
2022-10-29T21:24:25.006Z,8.55
2022-10-29T21:29:52.840Z,8.65
2022-10-29T21:35:17.368Z,8.15
2022-10-29T21:40:42.399Z,7.55
2022-10-29T21:46:08.162Z,7.45
2022-10-29T21:51:32.314Z,8.30
2022-10-29T21:56:56.626Z,7.55
2022-10-29T22:02:21.918Z,6.88
2022-10-29T22:07:49.545Z,6.65
2022-10-29T22:13:15.110Z,6.60
2022-10-29T22:18:41.363Z,5.88
2022-10-29T22:24:06.800Z,7.78
2022-10-29T22:29:33.051Z,7.55
2022-10-29T22:34:58.686Z,8.02
2022-10-29T22:40:23.215Z,7.78
2022-10-29T22:45:47.374Z,7.72
2022-10-29T22:51:15.823Z,7.28
2022-10-29T22:56:40.849Z,7.93
2022-10-29T23:02:06.815Z,8.20
2022-10-29T23:13:02.579Z,6.97
2022-10-29T23:18:27.370Z,7.30
2022-10-29T23:23:54.565Z,7.65
2022-10-29T23:29:20.712Z,7.07
2022-10-29T23:34:44.649Z,6.70
2022-10-29T23:40:11.547Z,7.50
2022-10-29T23:45:35.608Z,7.15
2022-10-29T23:51:00.616Z,7.85
2022-10-29T23:56:27.003Z,7.97
